ナイロビ の空港の天気 - METARとTAF

ジョモ・ケニヤッタ国際空港 ( HKJK / NBO ) - ケニア ナイロビ
飛行場実況気象(Metar)
観測時間09/30 09:30 EAT (09/30 06:30 UTC)
風向・風速不定 1m/s
視程10km以上
天気現象
少しの雲 雲底高度 520m
全天を覆う雲 雲底高度 550m
気温19℃
湿度78%
気圧1022hPa
METARHKJK 300630Z VRB02KT 9999 FEW017CB OVC018 19/15 Q1022 NOSIG
過去の天気等 Google飛行場航空写真 Wunderground天気予報

過去48時間のMETAR

飛行場予報(TAF)
発表時間: 9/30 08:00 EAT (9/30 05:00 UTC)
予報対象時間: 30日9時 EAT ~ 1日15時 EAT
風向・風速東 5m/s
視程10km以上
全天の4割程度の雲 雲底高度 670m
30日19時 EAT ~ 30日22時 EAT に徐々に
視程10km以上
なし
1日3時 EAT ~ 1日6時 EAT に徐々に
風向・風速不定 1m/s
視程10km以上
少しの雲 雲底高度 240m
全天の8割程度の雲 雲底高度 550m
1日11時 EAT ~ 1日14時 EAT に徐々に
風向・風速東 5m/s
全天の8割程度の雲 雲底高度 670m
TAF HKJK 300500Z 3006/0112 08010KT 9999 SCT022
BECMG 3016/3019 CAVOK
BECMG 0100/0103 VRB02KT 9999 FEW008 BKN018
BECMG 0108/0111 08010KT BKN022